sensor_id;sensor_type;location;lat;lon;timestamp;pressure;altitude;pressure_sealevel;temperature;humidity
74372;BME280;62885;51.374;6.170;2023-02-28T00:01:26;102765.91;;;-0.03;77.17
74372;BME280;62885;51.374;6.170;2023-02-28T00:03:51;102768.53;;;-0.03;77.32
74372;BME280;62885;51.374;6.170;2023-02-28T00:06:17;102761.53;;;-0.07;77.38
74372;BME280;62885;51.374;6.170;2023-02-28T00:08:42;102767.66;;;-0.10;77.48
74372;BME280;62885;51.374;6.170;2023-02-28T00:11:11;102765.94;;;-0.06;76.95
74372;BME280;62885;51.374;6.170;2023-02-28T00:13:39;102754.50;;;-0.11;77.42
74372;BME280;62885;51.374;6.170;2023-02-28T00:16:13;102763.28;;;-0.12;77.61
74372;BME280;62885;51.374;6.170;2023-02-28T00:18:39;102757.13;;;-0.14;77.77
74372;BME280;62885;51.374;6.170;2023-02-28T00:21:05;102763.28;;;-0.15;77.66
74372;BME280;62885;51.374;6.170;2023-02-28T00:23:31;102759.75;;;-0.26;78.29
74372;BME280;62885;51.374;6.170;2023-02-28T00:25:56;102759.75;;;-0.25;77.99
74372;BME280;62885;51.374;6.170;2023-02-28T00:28:21;102757.13;;;-0.35;78.58
74372;BME280;62885;51.374;6.170;2023-02-28T00:30:47;102767.63;;;-0.35;78.81
74372;BME280;62885;51.374;6.170;2023-02-28T00:33:12;102768.47;;;-0.39;79.10
74372;BME280;62885;51.374;6.170;2023-02-28T00:35:38;102764.09;;;-0.39;79.09
74372;BME280;62885;51.374;6.170;2023-02-28T00:38:04;102771.13;;;-0.39;78.87
74372;BME280;62885;51.374;6.170;2023-02-28T00:40:29;102774.63;;;-0.37;79.11
74372;BME280;62885;51.374;6.170;2023-02-28T00:42:55;102770.25;;;-0.42;79.18
74372;BME280;62885;51.374;6.170;2023-02-28T00:45:20;102775.50;;;-0.38;79.00
74372;BME280;62885;51.374;6.170;2023-02-28T00:47:45;102774.63;;;-0.42;79.47
74372;BME280;62885;51.374;6.170;2023-02-28T00:50:15;102775.47;;;-0.52;79.55
74372;BME280;62885;51.374;6.170;2023-02-28T00:52:40;102777.25;;;-0.50;79.83
74372;BME280;62885;51.374;6.170;2023-02-28T00:55:09;102775.47;;;-0.55;79.81
74372;BME280;62885;51.374;6.170;2023-02-28T00:57:34;102781.63;;;-0.50;79.39
74372;BME280;62885;51.374;6.170;2023-02-28T01:00:00;102782.50;;;-0.48;79.18
74372;BME280;62885;51.374;6.170;2023-02-28T01:02:26;102783.38;;;-0.49;79.96
74372;BME280;62885;51.374;6.170;2023-02-28T01:04:52;102785.09;;;-0.57;80.01
74372;BME280;62885;51.374;6.170;2023-02-28T01:07:17;102792.09;;;-0.65;79.92
74372;BME280;62885;51.374;6.170;2023-02-28T01:09:42;102782.47;;;-0.65;80.87
74372;BME280;62885;51.374;6.170;2023-02-28T01:12:08;102783.34;;;-0.66;80.32
74372;BME280;62885;51.374;6.170;2023-02-28T01:14:34;102787.72;;;-0.62;80.59
74372;BME280;62885;51.374;6.170;2023-02-28T01:17:00;102785.97;;;-0.64;80.51
74372;BME280;62885;51.374;6.170;2023-02-28T01:19:26;102785.97;;;-0.64;80.67
74372;BME280;62885;51.374;6.170;2023-02-28T01:21:51;102791.22;;;-0.66;81.28
74372;BME280;62885;51.374;6.170;2023-02-28T01:24:16;102793.84;;;-0.67;80.42
74372;BME280;62885;51.374;6.170;2023-02-28T01:26:42;102783.34;;;-0.66;80.36
74372;BME280;62885;51.374;6.170;2023-02-28T01:29:07;102775.44;;;-0.63;80.21
74372;BME280;62885;51.374;6.170;2023-02-28T01:31:33;102780.69;;;-0.67;80.75
74372;BME280;62885;51.374;6.170;2023-02-28T01:33:58;102779.84;;;-0.65;80.23
74372;BME280;62885;51.374;6.170;2023-02-28T01:36:24;102775.41;;;-0.69;80.46
74372;BME280;62885;51.374;6.170;2023-02-28T01:38:50;102776.31;;;-0.71;80.63
74372;BME280;62885;51.374;6.170;2023-02-28T01:46:11;102779.78;;;-0.74;80.79
74372;BME280;62885;51.374;6.170;2023-02-28T01:48:41;102771.00;;;-0.74;80.74
74372;BME280;62885;51.374;6.170;2023-02-28T01:51:12;102773.66;;;-0.77;81.03
74372;BME280;62885;51.374;6.170;2023-02-28T01:53:45;102767.56;;;-0.64;81.08
74372;BME280;62885;51.374;6.170;2023-02-28T01:56:13;102758.75;;;-0.69;81.09
74372;BME280;62885;51.374;6.170;2023-02-28T01:58:46;102758.72;;;-0.82;80.91
74372;BME280;62885;51.374;6.170;2023-02-28T02:01:12;102755.22;;;-0.82;81.63
74372;BME280;62885;51.374;6.170;2023-02-28T02:03:46;102752.59;;;-0.88;81.83
74372;BME280;62885;51.374;6.170;2023-02-28T02:06:12;102747.31;;;-0.87;82.11
74372;BME280;62885;51.374;6.170;2023-02-28T02:08:37;102749.06;;;-0.86;81.64
74372;BME280;62885;51.374;6.170;2023-02-28T02:11:03;102747.31;;;-0.87;80.97
74372;BME280;62885;51.374;6.170;2023-02-28T02:13:42;102751.66;;;-0.93;81.44
74372;BME280;62885;51.374;6.170;2023-02-28T02:32:33;102743.75;;;-0.98;81.43
74372;BME280;62885;51.374;6.170;2023-02-28T02:37:47;102742.88;;;-1.06;82.56
74372;BME280;62885;51.374;6.170;2023-02-28T02:40:21;102742.84;;;-1.12;82.83
74372;BME280;62885;51.374;6.170;2023-02-28T02:43:31;102745.47;;;-1.09;82.55
74372;BME280;62885;51.374;6.170;2023-02-28T02:46:09;102743.69;;;-1.13;82.43
74372;BME280;62885;51.374;6.170;2023-02-28T02:48:39;102739.34;;;-1.11;81.97
74372;BME280;62885;51.374;6.170;2023-02-28T02:51:10;102741.97;;;-1.12;83.27
74372;BME280;62885;51.374;6.170;2023-02-28T02:53:44;102746.34;;;-1.13;82.92
74372;BME280;62885;51.374;6.170;2023-02-28T02:56:12;102742.84;;;-1.12;82.60
74372;BME280;62885;51.374;6.170;2023-02-28T02:58:42;102738.47;;;-1.08;82.34
74372;BME280;62885;51.374;6.170;2023-02-28T03:01:10;102739.34;;;-1.08;82.86
74372;BME280;62885;51.374;6.170;2023-02-28T03:03:38;102739.34;;;-1.05;82.11
74372;BME280;62885;51.374;6.170;2023-02-28T03:06:04;102742.88;;;-1.03;82.16
74372;BME280;62885;51.374;6.170;2023-02-28T03:08:35;102756.91;;;-1.01;82.06
74372;BME280;62885;51.374;6.170;2023-02-28T03:11:06;102755.13;;;-1.02;82.24
74372;BME280;62885;51.374;6.170;2023-02-28T03:27:30;102744.56;;;-1.18;82.75
74372;BME280;62885;51.374;6.170;2023-02-28T03:30:06;102755.06;;;-1.18;81.72
74372;BME280;62885;51.374;6.170;2023-02-28T03:33:12;102743.66;;;-1.23;82.27
74372;BME280;62885;51.374;6.170;2023-02-28T03:35:43;102739.25;;;-1.26;82.38
74372;BME280;62885;51.374;6.170;2023-02-28T03:38:28;102741.00;;;-1.27;82.41
74372;BME280;62885;51.374;6.170;2023-02-28T03:41:21;102739.19;;;-1.34;83.30
74372;BME280;62885;51.374;6.170;2023-02-28T03:44:04;102733.09;;;-1.34;83.30
74372;BME280;62885;51.374;6.170;2023-02-28T03:46:34;102735.75;;;-1.30;83.16
74372;BME280;62885;51.374;6.170;2023-02-28T03:49:13;102735.75;;;-1.27;83.00
74372;BME280;62885;51.374;6.170;2023-02-28T03:51:41;102744.53;;;-1.25;82.17
74372;BME280;62885;51.374;6.170;2023-02-28T03:54:12;102751.50;;;-1.28;83.04
74372;BME280;62885;51.374;6.170;2023-02-28T03:56:52;102741.84;;;-1.35;82.55
74372;BME280;62885;51.374;6.170;2023-02-28T03:59:26;102746.22;;;-1.34;83.45
74372;BME280;62885;51.374;6.170;2023-02-28T04:01:53;102740.94;;;-1.39;82.65
74372;BME280;62885;51.374;6.170;2023-02-28T04:04:20;102740.00;;;-1.50;83.41
74372;BME280;62885;51.374;6.170;2023-02-28T04:06:49;102745.28;;;-1.44;83.52
74372;BME280;62885;51.374;6.170;2023-02-28T04:09:15;102741.75;;;-1.52;82.68
74372;BME280;62885;51.374;6.170;2023-02-28T04:14:07;102733.88;;;-1.52;83.66
74372;BME280;62885;51.374;6.170;2023-02-28T04:16:34;102740.84;;;-1.51;83.10
74372;BME280;62885;51.374;6.170;2023-02-28T04:18:59;102738.22;;;-1.54;83.64
74372;BME280;62885;51.374;6.170;2023-02-28T04:21:35;102743.50;;;-1.52;83.82
74372;BME280;62885;51.374;6.170;2023-02-28T04:24:01;102741.72;;;-1.53;83.86
74372;BME280;62885;51.374;6.170;2023-02-28T04:26:34;102746.91;;;-1.61;83.63
74372;BME280;62885;51.374;6.170;2023-02-28T04:29:01;102746.91;;;-1.61;83.40
74372;BME280;62885;51.374;6.170;2023-02-28T04:31:26;102747.81;;;-1.63;84.35
74372;BME280;62885;51.374;6.170;2023-02-28T04:33:52;102753.94;;;-1.60;84.73
74372;BME280;62885;51.374;6.170;2023-02-28T04:36:18;102754.78;;;-1.66;84.30
74372;BME280;62885;51.374;6.170;2023-02-28T04:38:44;102748.63;;;-1.71;84.83
74372;BME280;62885;51.374;6.170;2023-02-28T04:41:10;102757.38;;;-1.70;84.56
74372;BME280;62885;51.374;6.170;2023-02-28T04:43:36;102753.81;;;-1.77;85.19
74372;BME280;62885;51.374;6.170;2023-02-28T04:46:03;102765.16;;;-1.79;84.71
74372;BME280;62885;51.374;6.170;2023-02-28T04:48:30;102761.66;;;-1.83;84.81
74372;BME280;62885;51.374;6.170;2023-02-28T04:51:07;102763.41;;;-1.82;85.89
74372;BME280;62885;51.374;6.170;2023-02-28T04:53:33;102757.31;;;-1.81;84.79
74372;BME280;62885;51.374;6.170;2023-02-28T04:55:59;102759.91;;;-1.82;85.07
74372;BME280;62885;51.374;6.170;2023-02-28T04:58:24;102756.44;;;-1.78;84.88
74372;BME280;62885;51.374;6.170;2023-02-28T05:00:53;102757.31;;;-1.76;85.19
74372;BME280;62885;51.374;6.170;2023-02-28T05:03:19;102755.63;;;-1.71;84.54
74372;BME280;62885;51.374;6.170;2023-02-28T05:05:46;102757.38;;;-1.70;85.25
74372;BME280;62885;51.374;6.170;2023-02-28T05:08:11;102753.88;;;-1.71;84.77
74372;BME280;62885;51.374;6.170;2023-02-28T05:10:36;102755.63;;;-1.68;85.03
74372;BME280;62885;51.374;6.170;2023-02-28T05:13:02;102755.63;;;-1.67;85.52
74372;BME280;62885;51.374;6.170;2023-02-28T05:15:27;102753.78;;;-1.83;84.43
74372;BME280;62885;51.374;6.170;2023-02-28T05:17:53;102753.78;;;-1.81;84.59
74372;BME280;62885;51.374;6.170;2023-02-28T05:20:18;102754.69;;;-1.76;84.38
74372;BME280;62885;51.374;6.170;2023-02-28T05:22:44;102758.25;;;-1.71;84.97
74372;BME280;62885;51.374;6.170;2023-02-28T05:25:18;102766.91;;;-1.80;84.39
74372;BME280;62885;51.374;6.170;2023-02-28T05:27:44;102765.16;;;-1.82;84.83
74372;BME280;62885;51.374;6.170;2023-02-28T05:30:10;102773.09;;;-1.73;84.54
74372;BME280;62885;51.374;6.170;2023-02-28T05:32:37;102769.56;;;-1.74;84.05
74372;BME280;62885;51.374;6.170;2023-02-28T05:35:03;102770.44;;;-1.81;84.58
74372;BME280;62885;51.374;6.170;2023-02-28T05:37:28;102777.38;;;-1.87;82.85
74372;BME280;62885;51.374;6.170;2023-02-28T05:39:54;102767.75;;;-1.87;83.18
74372;BME280;62885;51.374;6.170;2023-02-28T05:42:19;102782.72;;;-1.75;82.89
74372;BME280;62885;51.374;6.170;2023-02-28T05:44:45;102786.19;;;-1.78;82.77
74372;BME280;62885;51.374;6.170;2023-02-28T05:47:10;102778.28;;;-1.82;83.28
74372;BME280;62885;51.374;6.170;2023-02-28T05:49:37;102778.19;;;-1.94;83.31
74372;BME280;62885;51.374;6.170;2023-02-28T05:52:03;102790.34;;;-2.02;83.90
74372;BME280;62885;51.374;6.170;2023-02-28T05:54:28;102790.34;;;-2.01;84.27
74372;BME280;62885;51.374;6.170;2023-02-28T05:56:54;102787.69;;;-2.07;84.20
74372;BME280;62885;51.374;6.170;2023-02-28T05:59:19;102790.25;;;-2.12;84.39
74372;BME280;62885;51.374;6.170;2023-02-28T06:01:45;102786.78;;;-2.09;84.11
74372;BME280;62885;51.374;6.170;2023-02-28T06:04:15;102779.81;;;-2.07;83.68
74372;BME280;62885;51.374;6.170;2023-02-28T06:06:45;102780.66;;;-2.10;84.26
74372;BME280;62885;51.374;6.170;2023-02-28T06:09:11;102784.31;;;-1.94;84.01
74372;BME280;62885;51.374;6.170;2023-02-28T06:11:36;102784.22;;;-2.03;83.10
74372;BME280;62885;51.374;6.170;2023-02-28T06:14:04;102784.22;;;-2.04;83.60
74372;BME280;62885;51.374;6.170;2023-02-28T06:16:31;102782.53;;;-1.95;83.25
74372;BME280;62885;51.374;6.170;2023-02-28T06:18:58;102786.94;;;-1.94;81.85
74372;BME280;62885;51.374;6.170;2023-02-28T06:21:24;102787.75;;;-1.96;83.22
74372;BME280;62885;51.374;6.170;2023-02-28T06:23:49;102792.06;;;-2.03;82.66
74372;BME280;62885;51.374;6.170;2023-02-28T06:26:15;102794.66;;;-2.09;82.22
74372;BME280;62885;51.374;6.170;2023-02-28T06:28:41;102791.19;;;-2.03;81.90
74372;BME280;62885;51.374;6.170;2023-02-28T06:31:11;102799.97;;;-2.04;81.51
74372;BME280;62885;51.374;6.170;2023-02-28T06:33:37;102804.38;;;-2.00;81.49
74372;BME280;62885;51.374;6.170;2023-02-28T06:36:04;102801.56;;;-1.05;78.76
74372;BME280;62885;51.374;6.170;2023-02-28T06:38:31;102805.41;;;-0.18;74.13
74372;BME280;62885;51.374;6.170;2023-02-28T06:40:57;102813.31;;;0.44;70.80
74372;BME280;62885;51.374;6.170;2023-02-28T06:43:24;102807.19;;;0.51;68.76
74372;BME280;62885;51.374;6.170;2023-02-28T06:45:50;102808.03;;;0.74;68.36
74372;BME280;62885;51.374;6.170;2023-02-28T06:48:16;102814.78;;;-0.86;73.51
74372;BME280;62885;51.374;6.170;2023-02-28T06:50:41;102817.00;;;-1.51;77.19
74372;BME280;62885;51.374;6.170;2023-02-28T06:53:07;102822.09;;;-1.75;77.80
74372;BME280;62885;51.374;6.170;2023-02-28T06:55:32;102815.06;;;-1.75;78.99
74372;BME280;62885;51.374;6.170;2023-02-28T06:57:58;102810.63;;;-1.83;79.49
74372;BME280;62885;51.374;6.170;2023-02-28T07:00:24;102822.88;;;-1.87;80.05
74372;BME280;62885;51.374;6.170;2023-02-28T07:02:50;102820.34;;;-1.73;78.68
74372;BME280;62885;51.374;6.170;2023-02-28T07:05:15;102823.00;;;-1.69;79.39
74372;BME280;62885;51.374;6.170;2023-02-28T07:07:41;102828.19;;;-1.75;78.49
74372;BME280;62885;51.374;6.170;2023-02-28T07:10:10;102827.34;;;-1.74;78.34
74372;BME280;62885;51.374;6.170;2023-02-28T07:12:36;102829.09;;;-1.73;77.32
74372;BME280;62885;51.374;6.170;2023-02-28T07:15:03;102823.88;;;-1.71;78.25
74372;BME280;62885;51.374;6.170;2023-02-28T07:17:29;102825.75;;;-1.58;78.41
74372;BME280;62885;51.374;6.170;2023-02-28T07:19:54;102835.41;;;-1.51;76.51
74372;BME280;62885;51.374;6.170;2023-02-28T07:22:20;102838.94;;;-1.44;76.19
74372;BME280;62885;51.374;6.170;2023-02-28T07:24:45;102834.63;;;-1.41;76.38
74372;BME280;62885;51.374;6.170;2023-02-28T07:27:10;102838.22;;;-1.30;76.53
74372;BME280;62885;51.374;6.170;2023-02-28T07:29:36;102838.28;;;-1.19;74.94
74372;BME280;62885;51.374;6.170;2023-02-28T07:32:02;102844.44;;;-1.12;73.78
74372;BME280;62885;51.374;6.170;2023-02-28T07:34:28;102839.22;;;-1.06;73.69
74372;BME280;62885;51.374;6.170;2023-02-28T07:36:53;102847.13;;;-1.02;73.00
74372;BME280;62885;51.374;6.170;2023-02-28T07:39:19;102844.53;;;-0.97;73.09
74372;BME280;62885;51.374;6.170;2023-02-28T07:41:45;102848.97;;;-0.90;72.52
74372;BME280;62885;51.374;6.170;2023-02-28T07:44:11;102844.63;;;-0.82;72.88
74372;BME280;62885;51.374;6.170;2023-02-28T07:46:37;102845.53;;;-0.74;72.21
74372;BME280;62885;51.374;6.170;2023-02-28T07:49:02;102854.34;;;-0.67;71.98
74372;BME280;62885;51.374;6.170;2023-02-28T07:51:29;102849.13;;;-0.60;70.91
74372;BME280;62885;51.374;6.170;2023-02-28T07:53:55;102847.38;;;-0.50;71.08
74372;BME280;62885;51.374;6.170;2023-02-28T07:56:20;102856.19;;;-0.42;71.20
74372;BME280;62885;51.374;6.170;2023-02-28T07:58:46;102861.50;;;-0.36;69.12
74372;BME280;62885;51.374;6.170;2023-02-28T08:01:12;102862.41;;;-0.25;69.56
74372;BME280;62885;51.374;6.170;2023-02-28T08:03:38;102859.78;;;-0.19;69.10
74372;BME280;62885;51.374;6.170;2023-02-28T08:06:05;102864.19;;;-0.04;67.88
74372;BME280;62885;51.374;6.170;2023-02-28T08:08:31;102864.22;;;0.05;67.61
74372;BME280;62885;51.374;6.170;2023-02-28T08:11:03;102873.00;;;0.15;65.81
74372;BME280;62885;51.374;6.170;2023-02-28T08:13:29;102864.25;;;0.22;65.60
74372;BME280;62885;51.374;6.170;2023-02-28T08:15:55;102872.13;;;0.29;65.72
74372;BME280;62885;51.374;6.170;2023-02-28T08:18:21;102865.13;;;0.33;63.92
74372;BME280;62885;51.374;6.170;2023-02-28T08:20:47;102863.41;;;0.39;63.50
74372;BME280;62885;51.374;6.170;2023-02-28T08:23:12;102866.03;;;0.46;63.16
74372;BME280;62885;51.374;6.170;2023-02-28T08:25:38;102870.41;;;0.56;63.40
74372;BME280;62885;51.374;6.170;2023-02-28T08:28:03;102861.66;;;0.58;63.26
74372;BME280;62885;51.374;6.170;2023-02-28T08:30:29;102862.50;;;0.62;61.67
74372;BME280;62885;51.374;6.170;2023-02-28T08:32:54;102865.13;;;0.71;61.83
74372;BME280;62885;51.374;6.170;2023-02-28T08:35:20;102860.72;;;0.83;61.73
74372;BME280;62885;51.374;6.170;2023-02-28T08:37:47;102861.63;;;0.87;60.69
74372;BME280;62885;51.374;6.170;2023-02-28T08:40:13;102855.44;;;0.96;60.63
74372;BME280;62885;51.374;6.170;2023-02-28T08:42:46;102870.34;;;1.07;60.72
74372;BME280;62885;51.374;6.170;2023-02-28T08:45:12;102871.22;;;1.14;59.08
74372;BME280;62885;51.374;6.170;2023-02-28T08:47:37;102861.53;;;1.19;59.80
74372;BME280;62885;51.374;6.170;2023-02-28T08:50:07;102866.81;;;1.28;59.34
74372;BME280;62885;51.374;6.170;2023-02-28T08:52:32;102858.88;;;1.33;58.55
74372;BME280;62885;51.374;6.170;2023-02-28T08:54:58;102858.81;;;1.43;58.63
74372;BME280;62885;51.374;6.170;2023-02-28T08:57:23;102856.13;;;1.55;56.49
74372;BME280;62885;51.374;6.170;2023-02-28T08:59:51;102858.75;;;1.60;55.58
74372;BME280;62885;51.374;6.170;2023-02-28T09:02:16;102841.13;;;1.67;55.49
74372;BME280;62885;51.374;6.170;2023-02-28T09:04:42;102849.84;;;1.76;54.14
74372;BME280;62885;51.374;6.170;2023-02-28T09:07:10;102850.66;;;1.89;53.79
74372;BME280;62885;51.374;6.170;2023-02-28T09:09:35;102852.34;;;2.03;53.11
74372;BME280;62885;51.374;6.170;2023-02-28T09:12:01;102851.47;;;2.01;52.75
74372;BME280;62885;51.374;6.170;2023-02-28T09:14:27;102854.97;;;2.10;51.90
74372;BME280;62885;51.374;6.170;2023-02-28T09:16:52;102846.16;;;2.09;52.16
74372;BME280;62885;51.374;6.170;2023-02-28T09:19:17;102842.56;;;2.18;52.19
74372;BME280;62885;51.374;6.170;2023-02-28T09:21:43;102843.47;;;2.14;51.28
74372;BME280;62885;51.374;6.170;2023-02-28T09:24:08;102859.28;;;2.21;51.76
74372;BME280;62885;51.374;6.170;2023-02-28T09:26:34;102845.09;;;2.33;51.45
74372;BME280;62885;51.374;6.170;2023-02-28T09:28:59;102845.03;;;2.39;51.43
74372;BME280;62885;51.374;6.170;2023-02-28T09:31:26;102836.13;;;2.51;51.07
74372;BME280;62885;51.374;6.170;2023-02-28T09:33:54;102844.94;;;2.51;50.05
74372;BME280;62885;51.374;6.170;2023-02-28T09:36:21;102846.63;;;2.61;48.50
74372;BME280;62885;51.374;6.170;2023-02-28T09:38:47;102849.22;;;2.67;47.17
74372;BME280;62885;51.374;6.170;2023-02-28T09:41:17;102831.66;;;2.57;47.22
74372;BME280;62885;51.374;6.170;2023-02-28T09:43:47;102839.56;;;2.60;47.90
74372;BME280;62885;51.374;6.170;2023-02-28T09:48:52;102832.53;;;2.58;45.77
74372;BME280;62885;51.374;6.170;2023-02-28T09:53:59;102834.06;;;2.83;44.79
74372;BME280;62885;51.374;6.170;2023-02-28T09:56:38;102836.72;;;2.80;45.56
74372;BME280;62885;51.374;6.170;2023-02-28T09:59:14;102833.97;;;2.94;45.75
74372;BME280;62885;51.374;6.170;2023-02-28T10:06:49;102829.63;;;2.86;44.01
74372;BME280;62885;51.374;6.170;2023-02-28T10:09:18;102852.34;;;3.04;43.52
74372;BME280;62885;51.374;6.170;2023-02-28T10:11:53;102838.34;;;2.96;44.34
74372;BME280;62885;51.374;6.170;2023-02-28T10:14:26;102832.06;;;3.03;44.58
74372;BME280;62885;51.374;6.170;2023-02-28T10:17:12;102837.53;;;2.88;43.70
74372;BME280;62885;51.374;6.170;2023-02-28T10:19:44;102835.84;;;2.84;43.80
74372;BME280;62885;51.374;6.170;2023-02-28T10:22:19;102837.59;;;2.80;44.22
74372;BME280;62885;51.374;6.170;2023-02-28T10:24:47;102844.66;;;2.80;44.45
74372;BME280;62885;51.374;6.170;2023-02-28T10:27:23;102842.84;;;2.86;44.84
74372;BME280;62885;51.374;6.170;2023-02-28T10:29:51;102836.66;;;2.87;45.02
74372;BME280;62885;51.374;6.170;2023-02-28T10:32:20;102826.75;;;3.08;44.58
74372;BME280;62885;51.374;6.170;2023-02-28T10:34:59;102825.84;;;3.09;43.70
74372;BME280;62885;51.374;6.170;2023-02-28T10:37:26;102822.31;;;3.10;43.80
74372;BME280;62885;51.374;6.170;2023-02-28T10:39:52;102826.56;;;3.24;43.98
74372;BME280;62885;51.374;6.170;2023-02-28T10:42:28;102825.69;;;3.22;43.88
74372;BME280;62885;51.374;6.170;2023-02-28T10:45:16;102829.22;;;3.21;43.74
74372;BME280;62885;51.374;6.170;2023-02-28T10:47:59;102807.25;;;3.15;43.33
74372;BME280;62885;51.374;6.170;2023-02-28T10:50:37;102830.25;;;3.10;44.26
74372;BME280;62885;51.374;6.170;2023-02-28T10:55:57;102825.19;;;2.90;44.26
74372;BME280;62885;51.374;6.170;2023-02-28T10:58:25;102829.59;;;2.89;44.96
74372;BME280;62885;51.374;6.170;2023-02-28T11:00:52;102824.31;;;2.88;45.05
74372;BME280;62885;51.374;6.170;2023-02-28T11:03:25;102825.06;;;3.01;44.97
74372;BME280;62885;51.374;6.170;2023-02-28T11:05:50;102811.78;;;3.04;45.17
74372;BME280;62885;51.374;6.170;2023-02-28T11:08:17;102809.94;;;3.12;45.22
74372;BME280;62885;51.374;6.170;2023-02-28T11:10:57;102820.41;;;3.22;45.34
74372;BME280;62885;51.374;6.170;2023-02-28T11:13:33;102814.13;;;3.31;44.89
74372;BME280;62885;51.374;6.170;2023-02-28T11:16:03;102815.69;;;3.46;44.75
74372;BME280;62885;51.374;6.170;2023-02-28T11:18:40;102801.66;;;3.41;44.65
74372;BME280;62885;51.374;6.170;2023-02-28T11:21:08;102803.50;;;3.34;44.79
74372;BME280;62885;51.374;6.170;2023-02-28T11:23:35;102803.25;;;3.54;44.42
74372;BME280;62885;51.374;6.170;2023-02-28T11:26:03;102808.22;;;3.78;44.26
74372;BME280;62885;51.374;6.170;2023-02-28T11:28:34;102803.72;;;3.82;44.40
74372;BME280;62885;51.374;6.170;2023-02-28T11:31:14;102813.63;;;3.70;43.64
74372;BME280;62885;51.374;6.170;2023-02-28T11:33:44;102806.63;;;3.65;44.18
74372;BME280;62885;51.374;6.170;2023-02-28T11:38:49;102803.66;;;3.88;43.78
74372;BME280;62885;51.374;6.170;2023-02-28T11:41:25;102794.81;;;3.89;43.01
74372;BME280;62885;51.374;6.170;2023-02-28T11:47:00;102799.97;;;3.96;43.99
74372;BME280;62885;51.374;6.170;2023-02-28T11:49:37;102805.41;;;3.87;43.91
74372;BME280;62885;51.374;6.170;2023-02-28T11:55:00;102805.66;;;3.72;43.92
74372;BME280;62885;51.374;6.170;2023-02-28T12:00:59;102803.69;;;3.85;43.96
74372;BME280;62885;51.374;6.170;2023-02-28T12:03:43;102795.47;;;4.03;43.50
74372;BME280;62885;51.374;6.170;2023-02-28T12:08:49;102781.56;;;3.89;43.06
74372;BME280;62885;51.374;6.170;2023-02-28T12:11:35;102784.84;;;4.04;43.33
74372;BME280;62885;51.374;6.170;2023-02-28T12:28:23;102762.88;;;3.96;43.66
74372;BME280;62885;51.374;6.170;2023-02-28T12:31:01;102775.13;;;4.03;43.59
74372;BME280;62885;51.374;6.170;2023-02-28T12:33:36;102767.09;;;4.08;43.45
74372;BME280;62885;51.374;6.170;2023-02-28T12:36:17;102757.16;;;4.22;42.45
74372;BME280;62885;51.374;6.170;2023-02-28T12:38:48;102738.03;;;4.54;42.23
74372;BME280;62885;51.374;6.170;2023-02-28T12:41:19;102743.72;;;4.31;41.31
74372;BME280;62885;51.374;6.170;2023-02-28T12:43:55;102734.97;;;4.28;41.54
74372;BME280;62885;51.374;6.170;2023-02-28T12:46:27;102726.91;;;4.34;42.06
74372;BME280;62885;51.374;6.170;2023-02-28T12:48:59;102730.19;;;4.48;41.38
74372;BME280;62885;51.374;6.170;2023-02-28T12:51:26;102731.91;;;4.50;41.44
74372;BME280;62885;51.374;6.170;2023-02-28T12:54:07;102734.66;;;4.44;41.22
74372;BME280;62885;51.374;6.170;2023-02-28T12:56:53;102731.88;;;4.52;42.34
74372;BME280;62885;51.374;6.170;2023-02-28T12:59:25;102731.25;;;4.38;41.61
74372;BME280;62885;51.374;6.170;2023-02-28T13:07:23;102714.28;;;4.48;41.30
74372;BME280;62885;51.374;6.170;2023-02-28T13:09:57;102714.84;;;4.65;41.75
74372;BME280;62885;51.374;6.170;2023-02-28T13:12:24;102706.56;;;4.80;41.16
74372;BME280;62885;51.374;6.170;2023-02-28T13:15:05;102706.94;;;4.61;41.42
74372;BME280;62885;51.374;6.170;2023-02-28T13:17:39;102702.03;;;4.85;41.06
74372;BME280;62885;51.374;6.170;2023-02-28T13:20:15;102699.59;;;4.75;40.79
74372;BME280;62885;51.374;6.170;2023-02-28T13:22:44;102710.25;;;4.73;41.42
74372;BME280;62885;51.374;6.170;2023-02-28T13:27:50;102682.94;;;4.68;41.28
74372;BME280;62885;51.374;6.170;2023-02-28T13:33:25;102676.75;;;5.09;41.16
74372;BME280;62885;51.374;6.170;2023-02-28T13:46:35;102676.47;;;5.23;40.56
74372;BME280;62885;51.374;6.170;2023-02-28T13:52:07;102670.84;;;4.96;40.78
74372;BME280;62885;51.374;6.170;2023-02-28T14:00:58;102686.34;;;5.16;40.91
74372;BME280;62885;51.374;6.170;2023-02-28T14:06:31;102669.47;;;5.19;40.54
74372;BME280;62885;51.374;6.170;2023-02-28T14:09:25;102663.97;;;5.28;40.59
74372;BME280;62885;51.374;6.170;2023-02-28T14:11:53;102674.97;;;5.10;40.88
74372;BME280;62885;51.374;6.170;2023-02-28T14:17:04;102668.44;;;5.24;40.62
74372;BME280;62885;51.374;6.170;2023-02-28T14:19:31;102667.63;;;5.22;41.20
74372;BME280;62885;51.374;6.170;2023-02-28T14:29:51;102658.34;;;5.42;40.91
74372;BME280;62885;51.374;6.170;2023-02-28T14:35:26;102666.25;;;5.43;41.06
74372;BME280;62885;51.374;6.170;2023-02-28T14:37:55;102664.84;;;5.27;41.42
74372;BME280;62885;51.374;6.170;2023-02-28T14:40:27;102658.41;;;5.38;41.64
74372;BME280;62885;51.374;6.170;2023-02-28T14:43:03;102654.13;;;5.31;42.18
74372;BME280;62885;51.374;6.170;2023-02-28T14:45:29;102658.41;;;5.38;41.41
74372;BME280;62885;51.374;6.170;2023-02-28T14:47:56;102648.50;;;5.45;42.22
74372;BME280;62885;51.374;6.170;2023-02-28T14:50:34;102649.34;;;5.47;42.20
74372;BME280;62885;51.374;6.170;2023-02-28T14:53:01;102655.31;;;5.57;41.98
74372;BME280;62885;51.374;6.170;2023-02-28T14:55:32;102645.59;;;5.56;42.01
74372;BME280;62885;51.374;6.170;2023-02-28T14:58:04;102644.72;;;5.55;42.01
74372;BME280;62885;51.374;6.170;2023-02-28T15:00:49;102647.34;;;5.57;42.10
74372;BME280;62885;51.374;6.170;2023-02-28T15:06:23;102642.34;;;5.43;42.76
74372;BME280;62885;51.374;6.170;2023-02-28T15:09:07;102647.63;;;5.45;42.58
74372;BME280;62885;51.374;6.170;2023-02-28T15:11:33;102648.03;;;5.28;42.90
74372;BME280;62885;51.374;6.170;2023-02-28T15:14:00;102647.13;;;5.29;42.62
74372;BME280;62885;51.374;6.170;2023-02-28T15:16:30;102645.56;;;5.19;43.70
74372;BME280;62885;51.374;6.170;2023-02-28T15:18:59;102640.09;;;5.26;44.31